Time;durP1;ratioP1;P1;durP2;ratioP2;P2;SDS_P1;SDS_P2;PMS_P1;PMS_P2;Temp;Humidity;BMP_temperature;BMP_pressure;BME280_temperature;BME280_humidity;BME280_pressure;Samples;Min_cycle;Max_cycle;Signal;HPM_P1;HPM_P2
2022/01/13 00:00:02;;;;;;;;;;;;;;;-144.99;100.00;52658.03;4947892;28;20319;-62
2022/01/13 00:02:32;;;;;;;;;;;;;;;-144.99;100.00;52660.09;4948169;28;20335;-62
2022/01/13 00:04:59;;;;;;;;;;;;;;;-144.99;100.00;52688.63;4947492;28;19927;-62
2022/01/13 00:07:25;;;;;;;;;;;;;;;-144.99;100.00;52692.69;4940965;28;19934;-61
2022/01/13 00:09:51;;;;;;;;;;;;;;;-144.99;100.00;52680.47;4948070;28;19927;-62
2022/01/13 00:12:21;;;;;;;;;;;;;;;-144.99;100.00;52662.13;4948098;28;20399;-62
2022/01/13 00:17:45;;;;;;;;;;;;;;;-144.99;100.00;52684.53;4948469;28;20004;-63
2022/01/13 00:20:31;;;;;;;;;;;;;;;-144.99;100.00;52629.50;4956446;28;19933;-61
2022/01/13 00:25:56;;;;;;;;;;;;;;;-144.99;100.00;52690.66;4947355;28;19926;-61
2022/01/13 00:28:23;;;;;;;;;;;;;;;-144.99;100.00;52627.47;4948824;28;19930;-59
2022/01/13 00:30:54;;;;;;;;;;;;;;;-144.99;100.00;52664.16;4941558;29;19938;-62
2022/01/13 00:33:24;;;;;;;;;;;;;;;-144.99;100.00;52684.53;4948758;28;19931;-60
2022/01/13 00:35:50;;;;;;;;;;;;;;;-144.99;100.00;52664.16;4961926;28;20414;-61
2022/01/13 00:38:17;;;;;;;;;;;;;;;-144.99;100.00;52664.16;4945169;29;20371;-63
2022/01/13 00:40:43;;;;;;;;;;;;;;;-144.99;100.00;52668.22;4948542;28;19934;-64
2022/01/13 00:43:10;;;;;;;;;;;;;;;-144.99;100.00;52711.03;4948423;28;19930;-62
2022/01/13 00:45:37;;;;;;;;;;;;;;;-144.99;100.00;52700.84;4948704;28;19926;-61
2022/01/13 00:48:04;;;;;;;;;;;;;;;-144.99;100.00;52700.84;4947719;28;20413;-61
2022/01/13 00:50:31;;;;;;;;;;;;;;;-144.99;100.00;52692.69;4939837;29;19938;-60
2022/01/13 00:52:57;;;;;;;;;;;;;;;-144.99;100.00;52672.31;4948055;28;20306;-61
2022/01/13 00:55:32;;;;;;;;;;;;;;;-144.99;100.00;52680.47;4945494;28;19930;-61
2022/01/13 00:57:58;;;;;;;;;;;;;;;-144.99;100.00;52684.53;4953086;28;20489;-60
2022/01/13 01:00:25;;;;;;;;;;;;;;;-144.99;100.00;52680.47;4948196;28;19934;-59
2022/01/13 01:02:52;;;;;;;;;;;;;;;-144.99;100.00;52666.19;4948407;28;20355;-61
2022/01/13 01:05:19;;;;;;;;;;;;;;;-144.99;100.00;52656.00;4944583;29;19927;-60
2022/01/13 01:07:45;;;;;;;;;;;;;;;-144.99;100.00;52688.63;4947241;29;19930;-61
2022/01/13 01:10:12;;;;;;;;;;;;;;;-144.99;100.00;52662.13;4947578;28;19927;-61
2022/01/13 01:12:38;;;;;;;;;;;;;;;-144.99;100.00;52658.03;4947223;28;19937;-60
2022/01/13 01:15:06;;;;;;;;;;;;;;;-144.99;100.00;52660.09;4951015;28;19958;-61
2022/01/13 01:17:34;;;;;;;;;;;;;;;-144.99;100.00;52678.44;4950269;28;19993;-60
2022/01/13 01:20:07;;;;;;;;;;;;;;;-144.99;100.00;52647.84;4961091;28;19972;-59
2022/01/13 01:22:57;;;;;;;;;;;;;;;-144.99;100.00;52647.84;4951822;28;19927;-59
2022/01/13 01:25:41;;;;;;;;;;;;;;;-144.99;100.00;52670.28;4968719;28;19928;-59
2022/01/13 01:28:15;;;;;;;;;;;;;;;-144.99;100.00;52686.59;4949982;28;20352;-59
2022/01/13 01:30:44;;;;;;;;;;;;;;;-144.99;100.00;52639.69;4950746;28;19926;-59
2022/01/13 01:33:14;;;;;;;;;;;;;;;-144.99;100.00;52656.00;4951272;28;21466;-58
2022/01/13 01:35:42;;;;;;;;;;;;;;;-144.99;100.00;52651.94;4950715;28;20326;-60
2022/01/13 01:38:10;;;;;;;;;;;;;;;-144.99;100.00;52664.16;4951002;28;19964;-59
2022/01/13 01:40:36;;;;;;;;;;;;;;;-144.99;100.00;52635.63;4949174;28;19926;-60
2022/01/13 01:43:02;;;;;;;;;;;;;;;-144.99;100.00;52664.16;4950427;28;19934;-59
2022/01/13 01:45:33;;;;;;;;;;;;;;;-144.99;100.00;52668.22;4951082;28;19988;-59
2022/01/13 01:48:03;;;;;;;;;;;;;;;-144.99;100.00;52680.47;4950537;28;19930;-58
2022/01/13 01:50:35;;;;;;;;;;;;;;;-144.99;100.00;52660.09;4951026;28;19926;-59
2022/01/13 01:53:03;;;;;;;;;;;;;;;-144.99;100.00;52670.28;4950814;28;20101;-59
2022/01/13 01:55:30;;;;;;;;;;;;;;;-144.99;100.00;52694.72;4945924;28;19927;-59
2022/01/13 01:57:56;;;;;;;;;;;;;;;-144.99;100.00;52684.53;4971534;28;20009;-59
2022/01/13 02:00:24;;;;;;;;;;;;;;;-144.99;100.00;52688.63;4958786;28;19927;-58
2022/01/13 02:02:51;;;;;;;;;;;;;;;-144.99;100.00;52649.88;4948223;28;19926;-59
2022/01/13 02:05:17;;;;;;;;;;;;;;;-144.99;100.00;52635.63;4949116;29;19927;-59
2022/01/13 02:07:44;;;;;;;;;;;;;;;-144.99;100.00;52619.31;4948585;28;20367;-58
2022/01/13 02:10:12;;;;;;;;;;;;;;;-144.99;100.00;52670.28;4947208;28;20311;-56
2022/01/13 02:12:42;;;;;;;;;;;;;;;-144.99;100.00;52688.63;4947996;28;19936;-56
2022/01/13 02:15:31;;;;;;;;;;;;;;;-144.99;100.00;52680.47;4944898;28;19926;-55
2022/01/13 02:17:59;;;;;;;;;;;;;;;-144.99;100.00;52664.16;4947754;28;20055;-56
2022/01/13 02:20:40;;;;;;;;;;;;;;;-144.99;100.00;52660.09;4956498;28;20268;-56
2022/01/13 02:23:06;;;;;;;;;;;;;;;-144.99;100.00;52688.63;4951266;28;19934;-56
2022/01/13 02:25:32;;;;;;;;;;;;;;;-144.99;100.00;52656.00;5016250;28;19932;-56
2022/01/13 02:27:59;;;;;;;;;;;;;;;-144.99;100.00;52684.53;5000571;28;19926;-57
2022/01/13 02:30:25;;;;;;;;;;;;;;;-144.99;100.00;52643.78;4950559;28;19937;-57
2022/01/13 02:32:52;;;;;;;;;;;;;;;-144.99;100.00;52680.47;4950601;28;20024;-57
2022/01/13 02:35:18;;;;;;;;;;;;;;;-144.99;100.00;52700.84;4946863;28;19941;-58
2022/01/13 02:37:46;;;;;;;;;;;;;;;-144.99;100.00;52660.09;4951658;28;20068;-57
2022/01/13 02:40:12;;;;;;;;;;;;;;;-144.99;100.00;52700.84;4949711;28;19930;-57
2022/01/13 02:42:39;;;;;;;;;;;;;;;-144.99;100.00;52647.84;4965040;28;20299;-57
2022/01/13 02:45:15;;;;;;;;;;;;;;;-144.99;100.00;52686.59;4948173;28;19926;-56
2022/01/13 02:48:00;;;;;;;;;;;;;;;-144.99;100.00;52680.47;4950190;28;19930;-58
2022/01/13 02:50:28;;;;;;;;;;;;;;;-144.99;100.00;52647.84;4948072;29;20358;-57
2022/01/13 02:52:56;;;;;;;;;;;;;;;-144.99;100.00;52688.63;4948383;28;19927;-58
2022/01/13 02:55:24;;;;;;;;;;;;;;;-144.99;100.00;52668.22;4944518;28;19934;-57
2022/01/13 02:57:50;;;;;;;;;;;;;;;-144.99;100.00;52676.38;4947390;28;19930;-58
2022/01/13 03:00:17;;;;;;;;;;;;;;;-144.99;100.00;52647.84;4968335;23;20378;-57
2022/01/13 03:02:47;;;;;;;;;;;;;;;-144.99;100.00;52684.53;4973489;28;19965;-59
2022/01/13 03:05:14;;;;;;;;;;;;;;;-144.99;100.00;52656.00;4948107;28;20079;-59
2022/01/13 03:07:40;;;;;;;;;;;;;;;-144.99;100.00;52651.94;4948711;28;20031;-58
2022/01/13 03:10:09;;;;;;;;;;;;;;;-144.99;100.00;52664.16;4946856;28;19926;-57
2022/01/13 03:12:38;;;;;;;;;;;;;;;-144.99;100.00;52684.53;4945670;28;20340;-57
2022/01/13 03:15:05;;;;;;;;;;;;;;;-144.99;100.00;52656.00;4944825;28;20017;-58
2022/01/13 03:17:32;;;;;;;;;;;;;;;-144.99;100.00;52704.94;4945931;28;19941;-58
2022/01/13 03:19:58;;;;;;;;;;;;;;;-144.99;100.00;52664.16;4944290;28;19927;-57
2022/01/13 03:22:24;;;;;;;;;;;;;;;-144.99;100.00;52651.94;4946325;28;20006;-57
2022/01/13 03:24:51;;;;;;;;;;;;;;;-144.99;100.00;52674.34;4948123;28;19927;-57
2022/01/13 03:27:22;;;;;;;;;;;;;;;-144.99;100.00;52643.78;4947426;28;20252;-57
2022/01/13 03:29:48;;;;;;;;;;;;;;;-144.99;100.00;52672.31;4943964;28;19938;-57
2022/01/13 03:32:15;;;;;;;;;;;;;;;-144.99;100.00;52656.00;4943388;28;19934;-57
2022/01/13 03:34:41;;;;;;;;;;;;;;;-144.99;100.00;52660.09;4943077;28;19931;-56
2022/01/13 03:37:08;;;;;;;;;;;;;;;-144.99;100.00;52656.00;4944255;28;19927;-57
2022/01/13 03:39:35;;;;;;;;;;;;;;;-144.99;100.00;52668.22;4943885;28;19927;-58
2022/01/13 03:42:02;;;;;;;;;;;;;;;-144.99;100.00;52615.25;4945998;28;19969;-57
2022/01/13 03:44:30;;;;;;;;;;;;;;;-144.99;100.00;52680.47;4947861;28;20017;-58
2022/01/13 03:46:59;;;;;;;;;;;;;;;-144.99;100.00;52668.22;4946753;28;19931;-57
2022/01/13 03:49:26;;;;;;;;;;;;;;;-144.99;100.00;52676.38;4944983;28;19933;-57
2022/01/13 03:52:11;;;;;;;;;;;;;;;-144.99;100.00;52664.16;4945144;28;19967;-57
2022/01/13 03:55:16;;;;;;;;;;;;;;;-144.99;100.00;52660.09;4944421;28;19931;-56
2022/01/13 03:58:11;;;;;;;;;;;;;;;-144.99;100.00;52641.72;4958003;28;20402;-57
2022/01/13 04:01:02;;;;;;;;;;;;;;;-144.99;100.00;52627.47;4943436;28;19967;-57
2022/01/13 04:03:28;;;;;;;;;;;;;;;-144.99;100.00;52656.00;4941164;28;19985;-56
2022/01/13 04:06:03;;;;;;;;;;;;;;;-144.99;100.00;52664.16;4944172;28;19927;-57
2022/01/13 04:08:30;;;;;;;;;;;;;;;-144.99;100.00;52668.22;4942516;28;19941;-58
2022/01/13 04:11:14;;;;;;;;;;;;;;;-144.99;100.00;52668.22;4945004;28;19938;-59
2022/01/13 04:13:51;;;;;;;;;;;;;;;-144.99;100.00;52631.53;4946149;28;20409;-58
2022/01/13 04:16:19;;;;;;;;;;;;;;;-144.99;100.00;52688.63;4943105;28;19926;-60
2022/01/13 04:18:46;;;;;;;;;;;;;;;-144.99;100.00;52647.84;4946683;28;20041;-59
2022/01/13 04:21:13;;;;;;;;;;;;;;;-144.99;100.00;52668.22;4981188;28;19934;-57
2022/01/13 04:23:40;;;;;;;;;;;;;;;-144.99;100.00;52641.72;4982021;28;20036;-59
2022/01/13 04:26:07;;;;;;;;;;;;;;;-144.99;100.00;52656.00;5006142;28;20280;-58
2022/01/13 04:28:34;;;;;;;;;;;;;;;-144.99;100.00;52686.59;4973477;28;20311;-58
2022/01/13 04:31:03;;;;;;;;;;;;;;;-144.99;100.00;52631.53;4958304;28;20176;-56
2022/01/13 04:33:31;;;;;;;;;;;;;;;-144.99;100.00;52692.69;4946611;28;19927;-57
2022/01/13 04:35:58;;;;;;;;;;;;;;;-144.99;100.00;52666.19;4948848;28;19933;-57
2022/01/13 04:38:25;;;;;;;;;;;;;;;-144.99;100.00;52651.94;4949408;28;20010;-58
2022/01/13 04:40:55;;;;;;;;;;;;;;;-144.99;100.00;52656.00;4949219;28;19941;-57
2022/01/13 04:43:22;;;;;;;;;;;;;;;-144.99;100.00;52672.31;4947547;28;19957;-58
2022/01/13 04:45:48;;;;;;;;;;;;;;;-144.99;100.00;52660.09;4948614;28;19926;-58
2022/01/13 04:48:15;;;;;;;;;;;;;;;-144.99;100.00;52684.53;4949162;28;19942;-59
2022/01/13 04:50:44;;;;;;;;;;;;;;;-144.99;100.00;52684.53;4952329;28;19941;-58
2022/01/13 04:53:10;;;;;;;;;;;;;;;-144.99;100.00;52680.47;4947427;29;19927;-58
2022/01/13 04:55:37;;;;;;;;;;;;;;;-144.99;100.00;52631.53;4943164;28;19942;-57
2022/01/13 04:58:04;;;;;;;;;;;;;;;-144.99;100.00;52668.22;4974170;28;19935;-57
2022/01/13 05:00:31;;;;;;;;;;;;;;;-144.99;100.00;52647.84;4948362;29;19950;-58
2022/01/13 05:02:58;;;;;;;;;;;;;;;-144.99;100.00;52635.63;4951042;28;20320;-59
2022/01/13 05:05:25;;;;;;;;;;;;;;;-144.99;100.00;52651.94;4949162;28;19949;-60
2022/01/13 05:07:53;;;;;;;;;;;;;;;-144.99;100.00;52649.88;4949612;28;20379;-58
2022/01/13 05:10:20;;;;;;;;;;;;;;;-144.99;100.00;52639.69;4947078;28;19948;-61
2022/01/13 05:12:52;;;;;;;;;;;;;;;-144.99;100.00;52680.47;4949569;28;20351;-62
2022/01/13 05:15:22;;;;;;;;;;;;;;;-144.99;100.00;52676.38;4946108;28;19933;-61
2022/01/13 05:20:41;;;;;;;;;;;;;;;-144.99;100.00;52611.16;4945560;28;20011;-60
2022/01/13 05:23:10;;;;;;;;;;;;;;;-144.99;100.00;52674.34;4944738;28;19926;-61
2022/01/13 05:25:36;;;;;;;;;;;;;;;-144.99;100.00;52660.09;4946558;28;19936;-61
2022/01/13 05:28:03;;;;;;;;;;;;;;;-144.99;100.00;52678.44;4944503;28;19948;-60
2022/01/13 05:30:30;;;;;;;;;;;;;;;-144.99;100.00;52656.00;4944899;28;20308;-61
2022/01/13 05:32:56;;;;;;;;;;;;;;;-144.99;100.00;52603.00;4947177;28;19927;-61
2022/01/13 05:35:23;;;;;;;;;;;;;;;-144.99;100.00;52658.03;4950458;28;19947;-61
2022/01/13 05:37:49;;;;;;;;;;;;;;;-144.99;100.00;52651.94;4947878;28;19944;-63
2022/01/13 05:40:17;;;;;;;;;;;;;;;-144.99;100.00;52633.59;4945642;28;19927;-60
2022/01/13 05:42:44;;;;;;;;;;;;;;;-144.99;100.00;52619.31;4944066;28;19926;-61
2022/01/13 05:45:15;;;;;;;;;;;;;;;-144.99;100.00;52631.53;4948405;28;21329;-60
2022/01/13 05:47:41;;;;;;;;;;;;;;;-144.99;100.00;52653.97;4947063;28;19926;-61
2022/01/13 05:50:09;;;;;;;;;;;;;;;-144.99;100.00;52619.31;4941449;28;19938;-63
2022/01/13 05:52:35;;;;;;;;;;;;;;;-144.99;100.00;52647.84;4946024;28;19938;-62
2022/01/13 05:55:02;;;;;;;;;;;;;;;-144.99;100.00;52658.03;4946023;28;19930;-62
2022/01/13 05:57:30;;;;;;;;;;;;;;;-144.99;100.00;52625.44;4943190;29;20376;-62
2022/01/13 05:59:56;;;;;;;;;;;;;;;-144.99;100.00;52660.09;4952794;28;20597;-62
2022/01/13 06:02:22;;;;;;;;;;;;;;;-144.99;100.00;52651.94;4946206;28;19931;-69
2022/01/13 06:04:49;;;;;;;;;;;;;;;-144.99;100.00;52668.22;4941682;28;19927;-67
2022/01/13 06:07:16;;;;;;;;;;;;;;;-144.99;100.00;52674.34;4945066;28;20359;-67
2022/01/13 06:09:43;;;;;;;;;;;;;;;-144.99;100.00;52643.78;4947653;28;19934;-67
2022/01/13 06:12:09;;;;;;;;;;;;;;;-144.99;100.00;52668.22;4946116;28;19946;-65
2022/01/13 06:14:37;;;;;;;;;;;;;;;-144.99;100.00;52603.00;4946621;28;19926;-67
2022/01/13 06:17:04;;;;;;;;;;;;;;;-144.99;100.00;52676.38;4261660;28;10000757;-68
2022/01/13 06:19:30;;;;;;;;;;;;;;;-144.99;100.00;52627.47;4939406;28;19931;-69
2022/01/13 06:21:56;;;;;;;;;;;;;;;-144.99;100.00;52631.53;4942490;28;20108;-69
2022/01/13 06:24:23;;;;;;;;;;;;;;;-144.99;100.00;52656.00;4941832;28;20171;-67
2022/01/13 06:26:49;;;;;;;;;;;;;;;-144.99;100.00;52631.53;4943340;28;19950;-70
2022/01/13 06:29:15;;;;;;;;;;;;;;;-144.99;100.00;52619.31;4950626;28;20426;-68
2022/01/13 06:31:43;;;;;;;;;;;;;;;-144.99;100.00;52662.13;4954085;28;20367;-68
2022/01/13 06:34:10;;;;;;;;;;;;;;;-144.99;100.00;52664.16;4938098;28;19937;-69
2022/01/13 06:36:36;;;;;;;;;;;;;;;-144.99;100.00;52619.31;4940878;28;20391;-68
2022/01/13 06:39:03;;;;;;;;;;;;;;;-144.99;100.00;52668.22;4943034;28;19930;-68
2022/01/13 06:41:30;;;;;;;;;;;;;;;-144.99;100.00;52639.69;4943289;28;19941;-69
2022/01/13 06:43:56;;;;;;;;;;;;;;;-144.99;100.00;52660.09;4941825;28;19979;-68
2022/01/13 06:46:23;;;;;;;;;;;;;;;-144.99;100.00;52664.16;4946117;28;19950;-68
2022/01/13 06:48:51;;;;;;;;;;;;;;;-144.99;100.00;52651.94;4939332;28;20337;-68
2022/01/13 06:51:17;;;;;;;;;;;;;;;-144.99;100.00;52651.94;4941090;28;19942;-68
2022/01/13 06:53:44;;;;;;;;;;;;;;;-144.99;100.00;52619.31;4939779;28;19930;-70
2022/01/13 06:56:11;;;;;;;;;;;;;;;-144.99;100.00;52607.09;4941297;28;19974;-67
2022/01/13 06:58:37;;;;;;;;;;;;;;;-144.99;100.00;52619.31;4944441;28;19937;-68
2022/01/13 07:01:03;;;;;;;;;;;;;;;-144.99;100.00;52670.28;4943540;28;19942;-66
2022/01/13 07:03:30;;;;;;;;;;;;;;;-144.99;100.00;52660.09;4941491;28;20330;-70
2022/01/13 07:05:57;;;;;;;;;;;;;;;-144.99;100.00;52672.31;4943319;28;19926;-69
2022/01/13 07:08:24;;;;;;;;;;;;;;;-144.99;100.00;52635.63;4939723;28;19949;-67
2022/01/13 07:10:50;;;;;;;;;;;;;;;-144.99;100.00;52658.03;4942423;28;20039;-68
2022/01/13 07:13:17;;;;;;;;;;;;;;;-144.99;100.00;52700.84;4942097;28;19931;-67
2022/01/13 07:15:44;;;;;;;;;;;;;;;-144.99;100.00;52688.63;4937810;28;19939;-70
2022/01/13 07:18:11;;;;;;;;;;;;;;;-144.99;100.00;52688.63;4943330;29;19937;-67
2022/01/13 07:20:39;;;;;;;;;;;;;;;-144.99;100.00;52656.00;4962583;28;19935;-66
2022/01/13 07:23:07;;;;;;;;;;;;;;;-144.99;100.00;52639.69;4943619;28;20105;-66
2022/01/13 07:25:33;;;;;;;;;;;;;;;-144.99;100.00;52586.69;4943613;28;19949;-69
2022/01/13 07:28:00;;;;;;;;;;;;;;;-144.99;100.00;52670.28;4978549;28;20303;-67
2022/01/13 07:30:26;;;;;;;;;;;;;;;-144.99;100.00;52647.84;4955730;28;20020;-68
2022/01/13 07:32:52;;;;;;;;;;;;;;;-144.99;100.00;52656.00;4946621;28;20280;-69
2022/01/13 07:35:19;;;;;;;;;;;;;;;-144.99;100.00;52692.69;4954565;28;19929;-70
2022/01/13 07:37:45;;;;;;;;;;;;;;;-144.99;100.00;52676.38;4944349;28;19934;-67
2022/01/13 07:40:17;;;;;;;;;;;;;;;-144.99;100.00;52692.69;4946254;28;20335;-67
2022/01/13 07:42:44;;;;;;;;;;;;;;;-144.99;100.00;52637.66;4944385;28;20328;-68
2022/01/13 07:45:10;;;;;;;;;;;;;;;-144.99;100.00;52680.47;4943426;28;20450;-67
2022/01/13 07:47:37;;;;;;;;;;;;;;;-144.99;100.00;52682.50;4958602;28;19976;-67
2022/01/13 07:50:04;;;;;;;;;;;;;;;-144.99;100.00;52670.28;4959998;28;19942;-68
2022/01/13 07:52:30;;;;;;;;;;;;;;;-144.99;100.00;52647.84;4943245;28;20394;-68
2022/01/13 07:54:56;;;;;;;;;;;;;;;-144.99;100.00;52631.53;4943096;28;19983;-69
2022/01/13 07:57:24;;;;;;;;;;;;;;;-144.99;100.00;52639.69;4943063;28;20377;-68
2022/01/13 07:59:52;;;;;;;;;;;;;;;-144.99;100.00;52684.53;4951165;28;20536;-68
2022/01/13 08:02:19;;;;;;;;;;;;;;;-144.99;100.00;52688.63;4946618;29;19992;-68
2022/01/13 08:04:45;;;;;;;;;;;;;;;-144.99;100.00;52647.84;4945742;28;20177;-68
2022/01/13 08:07:12;;;;;;;;;;;;;;;-144.99;100.00;52680.47;4969893;28;19932;-70
2022/01/13 08:09:38;;;;;;;;;;;;;;;-144.99;100.00;52682.50;4946690;28;19957;-68
2022/01/13 08:12:04;;;;;;;;;;;;;;;-144.99;100.00;52639.69;4945353;28;20323;-68
2022/01/13 08:14:32;;;;;;;;;;;;;;;-144.99;100.00;52670.28;4945958;28;19931;-67
2022/01/13 08:17:00;;;;;;;;;;;;;;;-144.99;100.00;52647.84;4944342;28;20030;-67
2022/01/13 08:22:11;;;;;;;;;;;;;;;-144.99;100.00;52651.94;4951700;28;19949;-66
2022/01/13 08:24:38;;;;;;;;;;;;;;;-144.99;100.00;52651.94;4952367;28;20006;-67
2022/01/13 08:27:04;;;;;;;;;;;;;;;-144.99;100.00;52684.53;4963118;28;20234;-69
2022/01/13 08:29:33;;;;;;;;;;;;;;;-144.99;100.00;52656.00;4946056;28;19926;-68
2022/01/13 08:32:00;;;;;;;;;;;;;;;-144.99;100.00;52674.34;4950782;28;19958;-67
2022/01/13 08:34:26;;;;;;;;;;;;;;;-144.99;100.00;52615.25;4945200;28;19978;-67
2022/01/13 08:36:53;;;;;;;;;;;;;;;-144.99;100.00;52637.66;4958683;28;19926;-69
2022/01/13 08:39:19;;;;;;;;;;;;;;;-144.99;100.00;52643.78;4945300;28;19934;-69
2022/01/13 08:41:46;;;;;;;;;;;;;;;-144.99;100.00;52611.16;4945633;28;19926;-67
2022/01/13 08:44:12;;;;;;;;;;;;;;;-144.99;100.00;52651.94;4949922;28;19934;-67
2022/01/13 08:46:40;;;;;;;;;;;;;;;-144.99;100.00;52633.59;4956509;28;19930;-68
2022/01/13 08:49:07;;;;;;;;;;;;;;;-144.99;100.00;52674.34;4947981;28;19934;-68
2022/01/13 08:51:33;;;;;;;;;;;;;;;-144.99;100.00;52684.53;4945601;28;19931;-69
2022/01/13 08:54:00;;;;;;;;;;;;;;;-144.99;100.00;52651.94;4945851;28;20340;-68
2022/01/13 08:56:26;;;;;;;;;;;;;;;-144.99;100.00;52684.53;4946037;28;20245;-68
2022/01/13 08:58:52;;;;;;;;;;;;;;;-144.99;100.00;52660.09;4949409;28;19946;-68
2022/01/13 09:01:19;;;;;;;;;;;;;;;-144.99;100.00;52609.13;4945340;28;20035;-67
2022/01/13 09:03:46;;;;;;;;;;;;;;;-144.99;100.00;52664.16;4965634;28;19935;-69
2022/01/13 09:06:13;;;;;;;;;;;;;;;-144.99;100.00;52619.31;4948246;28;19930;-68
2022/01/13 09:08:40;;;;;;;;;;;;;;;-144.99;100.00;52709.00;4945616;28;20273;-66
2022/01/13 09:11:06;;;;;;;;;;;;;;;-144.99;100.00;52688.63;4946060;28;20376;-67
2022/01/13 09:13:36;;;;;;;;;;;;;;;-144.99;100.00;52651.94;4948216;28;20360;-68
2022/01/13 09:16:04;;;;;;;;;;;;;;;-144.99;100.00;52672.31;4945360;28;19948;-68
2022/01/13 09:18:34;;;;;;;;;;;;;;;-144.99;100.00;52647.84;4947904;28;20031;-68
2022/01/13 09:21:02;;;;;;;;;;;;;;;-144.99;100.00;52664.16;4968076;28;20071;-67
2022/01/13 09:23:28;;;;;;;;;;;;;;;-144.99;100.00;52668.22;4967310;28;19930;-69
2022/01/13 09:25:55;;;;;;;;;;;;;;;-144.99;100.00;52625.44;4959822;28;19934;-67
2022/01/13 09:28:21;;;;;;;;;;;;;;;-144.99;100.00;52647.84;4964831;28;19961;-67
2022/01/13 09:30:47;;;;;;;;;;;;;;;-144.99;100.00;52668.22;4945198;28;19938;-67
2022/01/13 09:33:14;;;;;;;;;;;;;;;-144.99;100.00;52653.97;4944652;28;19972;-70
2022/01/13 09:35:40;;;;;;;;;;;;;;;-144.99;100.00;52639.69;4954357;28;19956;-68
2022/01/13 09:38:08;;;;;;;;;;;;;;;-144.99;100.00;52692.69;4945276;28;19941;-68
2022/01/13 09:40:35;;;;;;;;;;;;;;;-144.99;100.00;52668.22;4947540;28;20029;-68
2022/01/13 09:43:02;;;;;;;;;;;;;;;-144.99;100.00;52623.38;4986616;28;20414;-68
2022/01/13 09:45:30;;;;;;;;;;;;;;;-144.99;100.00;52660.09;4945139;28;19937;-68
2022/01/13 09:47:56;;;;;;;;;;;;;;;-144.99;100.00;52662.13;4944741;28;19931;-67
2022/01/13 09:50:22;;;;;;;;;;;;;;;-144.99;100.00;52676.38;4944791;28;19931;-68
2022/01/13 09:52:49;;;;;;;;;;;;;;;-144.99;100.00;52639.69;4945585;28;20043;-69
2022/01/13 09:55:17;;;;;;;;;;;;;;;-144.99;100.00;52631.53;4949155;28;19931;-69
2022/01/13 09:57:44;;;;;;;;;;;;;;;-144.99;100.00;52660.09;4946675;28;20048;-68
2022/01/13 10:00:12;;;;;;;;;;;;;;;-144.99;100.00;52674.34;4955614;28;19946;-68
2022/01/13 10:02:38;;;;;;;;;;;;;;;-144.99;100.00;52653.97;4976159;28;20097;-68
2022/01/13 10:05:05;;;;;;;;;;;;;;;-144.99;100.00;52684.53;4943722;28;20334;-67
2022/01/13 10:07:32;;;;;;;;;;;;;;;-144.99;100.00;52672.31;4946281;28;19992;-69
2022/01/13 10:09:59;;;;;;;;;;;;;;;-144.99;100.00;52656.00;4945568;28;19927;-69
2022/01/13 10:12:31;;;;;;;;;;;;;;;-144.99;100.00;52676.38;4944495;28;19936;-67
2022/01/13 10:17:45;;;;;;;;;;;;;;;-144.99;100.00;52692.69;4940201;28;19937;-67
2022/01/13 10:20:12;;;;;;;;;;;;;;;-144.99;100.00;52637.66;4964191;28;20011;-71
2022/01/13 10:22:38;;;;;;;;;;;;;;;-144.99;100.00;52676.38;4957039;28;19937;-67
2022/01/13 10:25:05;;;;;;;;;;;;;;;-144.99;100.00;52668.22;4945993;28;19934;-67
2022/01/13 10:27:34;;;;;;;;;;;;;;;-144.99;100.00;52668.22;4956208;28;19937;-68
2022/01/13 10:30:01;;;;;;;;;;;;;;;-144.99;100.00;52617.28;4947477;28;19930;-69
2022/01/13 10:32:32;;;;;;;;;;;;;;;-144.99;100.00;52678.44;4946062;28;19927;-68
2022/01/13 10:35:00;;;;;;;;;;;;;;;-144.99;100.00;52656.00;4943110;28;19931;-69
2022/01/13 10:37:30;;;;;;;;;;;;;;;-144.99;100.00;52651.94;4957436;28;19937;-70
2022/01/13 10:39:58;;;;;;;;;;;;;;;-144.99;100.00;52672.31;4967050;28;20321;-69
2022/01/13 10:45:27;;;;;;;;;;;;;;;-144.99;100.00;52668.22;4942612;29;20374;-68
2022/01/13 10:47:55;;;;;;;;;;;;;;;-144.99;100.00;52688.63;4946085;28;19930;-68
2022/01/13 10:50:22;;;;;;;;;;;;;;;-144.99;100.00;52672.31;4944045;28;20508;-67
2022/01/13 10:52:49;;;;;;;;;;;;;;;-144.99;100.00;52668.22;4945326;28;20314;-67
2022/01/13 10:55:17;;;;;;;;;;;;;;;-144.99;100.00;52627.47;4944147;28;20686;-68
2022/01/13 10:57:45;;;;;;;;;;;;;;;-144.99;100.00;52651.94;4949773;28;19927;-69
2022/01/13 11:00:19;;;;;;;;;;;;;;;-144.99;100.00;52639.69;4943322;28;19940;-68
2022/01/13 11:02:46;;;;;;;;;;;;;;;-144.99;100.00;52660.09;4943188;28;19934;-67
2022/01/13 11:05:12;;;;;;;;;;;;;;;-144.99;100.00;52656.00;4942834;28;19931;-66
2022/01/13 11:07:40;;;;;;;;;;;;;;;-144.99;100.00;52656.00;4942793;28;20347;-67
2022/01/13 11:10:07;;;;;;;;;;;;;;;-144.99;100.00;52623.38;4939900;28;20442;-68
2022/01/13 11:12:36;;;;;;;;;;;;;;;-144.99;100.00;52631.53;4941019;29;19942;-68
2022/01/13 11:15:05;;;;;;;;;;;;;;;-144.99;100.00;52676.38;4944332;28;19938;-67
2022/01/13 11:17:33;;;;;;;;;;;;;;;-144.99;100.00;52649.88;4957794;28;19937;-68
2022/01/13 11:20:00;;;;;;;;;;;;;;;-144.99;100.00;52656.00;4952537;28;19952;-68
2022/01/13 11:22:26;;;;;;;;;;;;;;;-144.99;100.00;52598.94;4942729;28;19934;-67
2022/01/13 11:24:52;;;;;;;;;;;;;;;-144.99;100.00;52656.00;4944347;28;19934;-69
2022/01/13 11:27:20;;;;;;;;;;;;;;;-144.99;100.00;52627.47;4955103;28;19934;-67
2022/01/13 11:29:46;;;;;;;;;;;;;;;-144.99;100.00;52668.22;4943755;28;19968;-68
2022/01/13 11:32:14;;;;;;;;;;;;;;;-144.99;100.00;52678.44;4942712;28;20298;-67
2022/01/13 11:34:41;;;;;;;;;;;;;;;-144.99;100.00;52660.09;4965738;28;19926;-67
2022/01/13 11:37:08;;;;;;;;;;;;;;;-144.99;100.00;52651.94;4970368;28;19933;-67
2022/01/13 11:39:36;;;;;;;;;;;;;;;-144.99;100.00;52627.47;4956366;28;19930;-70
2022/01/13 11:42:03;;;;;;;;;;;;;;;-144.99;100.00;52668.22;4953335;28;19935;-67
2022/01/13 11:44:30;;;;;;;;;;;;;;;-144.99;100.00;52615.25;4947807;28;19927;-67
2022/01/13 11:46:56;;;;;;;;;;;;;;;-144.99;100.00;52651.94;4946096;28;19987;-67
2022/01/13 11:49:36;;;;;;;;;;;;;;;-144.99;100.00;52627.47;4946013;28;19942;-68
2022/01/13 11:52:12;;;;;;;;;;;;;;;-144.99;100.00;52635.63;4947349;28;19931;-67
2022/01/13 11:54:39;;;;;;;;;;;;;;;-144.99;100.00;52619.31;4943971;29;19973;-69
2022/01/13 11:57:14;;;;;;;;;;;;;;;-144.99;100.00;52647.84;4945466;28;19997;-68
2022/01/13 11:59:47;;;;;;;;;;;;;;;-144.99;100.00;52651.94;4966782;28;19987;-71
2022/01/13 12:02:23;;;;;;;;;;;;;;;-144.99;100.00;52645.81;4947492;28;19930;-70
2022/01/13 12:05:04;;;;;;;;;;;;;;;-144.99;100.00;52623.38;4945774;28;19930;-70
2022/01/13 12:07:34;;;;;;;;;;;;;;;-144.99;100.00;52635.63;4943217;29;19961;-67
2022/01/13 12:10:01;;;;;;;;;;;;;;;-144.99;100.00;52627.47;4963013;28;19926;-71
2022/01/13 12:12:31;;;;;;;;;;;;;;;-144.99;100.00;52639.69;4969018;28;20257;-69
2022/01/13 12:15:12;;;;;;;;;;;;;;;-144.99;100.00;52645.81;4944996;28;19930;-68
2022/01/13 12:17:43;;;;;;;;;;;;;;;-144.99;100.00;52656.00;4958344;28;20370;-68
2022/01/13 12:20:22;;;;;;;;;;;;;;;-144.99;100.00;52619.31;4963163;28;19931;-68
2022/01/13 12:22:57;;;;;;;;;;;;;;;-144.99;100.00;52656.00;4949107;28;20410;-68
2022/01/13 12:25:31;;;;;;;;;;;;;;;-144.99;100.00;52664.16;4959660;28;21619;-68
2022/01/13 12:27:57;;;;;;;;;;;;;;;-144.99;100.00;52651.94;4981181;28;19957;-68
2022/01/13 12:30:26;;;;;;;;;;;;;;;-144.99;100.00;52639.69;4947649;28;19927;-68
2022/01/13 12:32:53;;;;;;;;;;;;;;;-144.99;100.00;52635.63;4970098;28;20034;-68
2022/01/13 12:35:32;;;;;;;;;;;;;;;-144.99;100.00;52639.69;4964094;28;20419;-68
2022/01/13 12:38:02;;;;;;;;;;;;;;;-144.99;100.00;52639.69;4943863;28;19968;-70
2022/01/13 12:40:33;;;;;;;;;;;;;;;-144.99;100.00;52625.44;4948951;28;19933;-68